createdAt,value
2023-02-22T00:00:46.360Z,4.50
2023-02-22T00:03:32.456Z,4.53
2023-02-22T00:06:07.264Z,4.67
2023-02-22T00:08:43.404Z,4.57
2023-02-22T00:11:11.280Z,4.23
2023-02-22T00:13:45.371Z,4.27
2023-02-22T00:16:24.365Z,5.07
2023-02-22T00:19:00.396Z,3.57
2023-02-22T00:21:34.406Z,3.83
2023-02-22T00:24:17.042Z,4.23
2023-02-22T00:26:50.398Z,4.27
2023-02-22T00:29:18.149Z,4.50
2023-02-22T00:31:52.489Z,4.40
2023-02-22T00:34:26.346Z,3.70
2023-02-22T00:37:00.394Z,3.80
2023-02-22T00:39:28.814Z,4.20
2023-02-22T00:42:03.409Z,3.77
2023-02-22T00:44:30.739Z,4.57
2023-02-22T00:47:04.372Z,3.70
2023-02-22T00:49:31.845Z,3.67
2023-02-22T00:52:06.389Z,3.70
2023-02-22T00:54:40.372Z,3.80
2023-02-22T00:57:14.388Z,3.83
2023-02-22T00:59:41.660Z,2.90
2023-02-22T01:02:16.390Z,2.97
2023-02-22T01:04:43.971Z,2.70
2023-02-22T01:07:18.416Z,2.87
2023-02-22T01:09:53.705Z,2.70
2023-02-22T01:12:27.408Z,3.10
2023-02-22T01:14:57.018Z,2.93
2023-02-22T01:17:33.576Z,2.60
2023-02-22T01:20:00.833Z,2.47
2023-02-22T01:22:34.559Z,2.37
2023-02-22T01:25:08.564Z,2.73
2023-02-22T01:27:43.560Z,2.43
2023-02-22T01:30:19.637Z,2.60
2023-02-22T01:32:53.578Z,2.40
2023-02-22T01:35:34.581Z,2.93
2023-02-22T01:38:08.610Z,2.87
2023-02-22T01:40:39.753Z,3.03
2023-02-22T01:43:22.574Z,2.80
2023-02-22T01:45:55.731Z,2.00
2023-02-22T01:48:48.603Z,2.23
2023-02-22T01:51:27.640Z,2.70
2023-02-22T01:54:05.909Z,2.70
2023-02-22T01:56:43.644Z,2.70
2023-02-22T01:59:19.653Z,2.23
2023-02-22T02:01:53.655Z,2.53
2023-02-22T02:04:28.354Z,2.80
2023-02-22T02:07:06.661Z,2.27
2023-02-22T02:09:40.338Z,2.47
2023-02-22T02:12:18.828Z,2.70
2023-02-22T02:14:52.628Z,2.10
2023-02-22T02:17:28.665Z,2.47
2023-02-22T02:20:08.673Z,2.20
2023-02-22T02:23:00.963Z,2.37
2023-02-22T02:26:15.720Z,2.70
2023-02-22T02:29:26.660Z,2.73
2023-02-22T02:32:05.375Z,2.40
2023-02-22T02:35:08.675Z,2.17
2023-02-22T02:38:01.689Z,2.00
2023-02-22T02:41:02.067Z,2.00
2023-02-22T02:44:01.924Z,1.70
2023-02-22T02:47:06.665Z,2.00
2023-02-22T02:50:04.697Z,2.30
2023-02-22T02:52:34.566Z,2.27
2023-02-22T02:55:10.722Z,2.10
2023-02-22T02:57:41.449Z,2.50
2023-02-22T03:00:31.717Z,2.13
2023-02-22T03:03:33.446Z,2.20
2023-02-22T03:06:28.677Z,2.40
2023-02-22T03:09:17.983Z,1.90
2023-02-22T03:12:09.667Z,2.57
2023-02-22T03:15:06.683Z,1.97
2023-02-22T03:18:09.711Z,2.23
2023-02-22T03:21:12.690Z,2.67
2023-02-22T03:23:55.654Z,2.60
2023-02-22T03:26:38.678Z,2.07
2023-02-22T03:29:16.677Z,2.20
2023-02-22T03:32:02.741Z,1.97
2023-02-22T03:34:43.664Z,2.30
2023-02-22T03:37:40.711Z,2.50
2023-02-22T03:40:14.070Z,2.37
2023-02-22T03:42:55.726Z,2.30
2023-02-22T03:45:26.131Z,2.57
2023-02-22T03:48:09.637Z,2.53
2023-02-22T03:50:39.358Z,2.50
2023-02-22T03:53:14.282Z,2.40
2023-02-22T03:55:41.853Z,2.60
2023-02-22T03:58:18.706Z,3.03
2023-02-22T04:00:46.128Z,2.47
2023-02-22T04:03:28.689Z,2.90
2023-02-22T04:05:56.013Z,2.53
2023-02-22T04:08:30.688Z,2.40
2023-02-22T04:10:58.726Z,3.20
2023-02-22T04:13:34.933Z,2.77
2023-02-22T04:16:02.521Z,2.47
2023-02-22T04:18:36.941Z,2.80
2023-02-22T04:21:04.986Z,2.57
2023-02-22T04:23:32.490Z,2.80
2023-02-22T04:26:06.982Z,2.50
2023-02-22T04:28:34.870Z,2.03
2023-02-22T04:31:09.044Z,2.57
2023-02-22T04:33:42.936Z,2.40
2023-02-22T04:36:18.046Z,2.57
2023-02-22T04:38:51.955Z,2.80
2023-02-22T04:41:27.031Z,2.37
2023-02-22T04:43:54.468Z,2.40
2023-02-22T04:46:28.994Z,2.40
2023-02-22T04:48:57.790Z,2.33
2023-02-22T04:51:32.167Z,2.30
2023-02-22T04:53:59.526Z,1.90
2023-02-22T04:56:33.004Z,2.20
2023-02-22T04:59:00.328Z,2.30
2023-02-22T05:01:41.964Z,1.93
2023-02-22T05:04:16.089Z,1.70
2023-02-22T05:06:56.980Z,1.77
2023-02-22T05:09:30.988Z,1.87
2023-02-22T05:12:05.025Z,1.87
2023-02-22T05:14:32.547Z,1.53
2023-02-22T05:17:07.961Z,1.83
2023-02-22T05:19:41.971Z,1.80
2023-02-22T05:22:09.670Z,1.60
2023-02-22T05:24:37.232Z,1.73
2023-02-22T05:27:10.984Z,1.50
2023-02-22T05:29:38.806Z,1.40
2023-02-22T05:32:13.044Z,1.70
2023-02-22T05:34:41.582Z,1.50
2023-02-22T05:37:15.007Z,1.50
2023-02-22T05:39:42.731Z,1.43
2023-02-22T05:42:17.007Z,1.30
2023-02-22T05:44:44.345Z,1.50
2023-02-22T05:47:17.964Z,1.20
2023-02-22T05:49:45.280Z,1.00
2023-02-22T05:52:18.976Z,1.10
2023-02-22T05:54:52.995Z,1.20
2023-02-22T05:57:20.315Z,1.00
2023-02-22T05:59:54.031Z,1.37
2023-02-22T06:02:27.939Z,1.10
2023-02-22T06:05:09.069Z,1.40
2023-02-22T06:07:36.442Z,1.40
2023-02-22T06:10:10.990Z,1.10
2023-02-22T06:12:45.010Z,1.57
2023-02-22T06:15:20.995Z,1.50
2023-02-22T06:17:48.996Z,1.27
2023-02-22T06:20:25.992Z,1.40
2023-02-22T06:29:08.988Z,1.07
2023-02-22T06:31:37.173Z,1.03
2023-02-22T06:34:11.047Z,0.90
2023-02-22T06:36:38.478Z,1.03
2023-02-22T06:39:18.148Z,1.30
2023-02-22T06:41:56.581Z,1.23
2023-02-22T06:44:31.127Z,1.43
2023-02-22T06:47:07.466Z,1.40
2023-02-22T06:49:35.876Z,1.20
2023-02-22T06:54:56.431Z,1.53
2023-02-22T06:57:37.405Z,1.23
2023-02-22T07:00:06.975Z,1.50
2023-02-22T07:02:41.734Z,1.40
2023-02-22T07:05:12.610Z,1.30
2023-02-22T07:07:46.696Z,1.48
2023-02-22T07:10:24.728Z,1.17
2023-02-22T07:12:58.736Z,1.37
2023-02-22T07:15:34.730Z,1.30
2023-02-22T07:18:08.712Z,1.30
2023-02-22T07:20:42.711Z,1.30
2023-02-22T07:23:16.692Z,1.27
2023-02-22T07:25:50.734Z,1.20
2023-02-22T07:28:18.336Z,1.20
2023-02-22T07:30:52.695Z,1.00
2023-02-22T07:33:26.697Z,1.27
2023-02-22T07:36:00.703Z,1.13
2023-02-22T07:38:35.725Z,1.30
2023-02-22T07:41:09.710Z,1.13
2023-02-22T07:43:37.177Z,0.95
2023-02-22T07:46:10.772Z,1.10
2023-02-22T07:48:45.699Z,1.33
2023-02-22T07:51:22.767Z,1.20
2023-02-22T07:54:03.776Z,1.48
2023-02-22T07:56:44.754Z,1.52
2023-02-22T07:59:18.737Z,1.15
2023-02-22T08:01:56.693Z,0.93
2023-02-22T08:04:24.243Z,1.30
2023-02-22T08:06:57.776Z,1.40
2023-02-22T08:09:31.749Z,1.75
2023-02-22T08:12:05.759Z,2.10
2023-02-22T08:14:39.751Z,2.03
2023-02-22T08:17:08.792Z,1.92
2023-02-22T08:19:42.730Z,1.92
2023-02-22T08:22:16.737Z,2.00
2023-02-22T08:24:51.802Z,1.60
2023-02-22T08:27:27.914Z,1.90
2023-02-22T08:30:02.804Z,1.80
2023-02-22T08:32:36.808Z,1.90
2023-02-22T08:35:04.461Z,1.90
2023-02-22T08:37:38.788Z,1.70
2023-02-22T08:40:14.738Z,2.05
2023-02-22T08:42:42.427Z,1.98
2023-02-22T08:45:17.715Z,1.90
2023-02-22T08:47:45.801Z,1.67
2023-02-22T08:50:32.714Z,1.90
2023-02-22T08:53:08.706Z,1.85
2023-02-22T08:55:51.737Z,2.15
2023-02-22T08:58:41.717Z,2.28
2023-02-22T09:01:32.701Z,1.73
2023-02-22T09:04:07.770Z,1.90
2023-02-22T09:06:41.693Z,1.83
2023-02-22T09:09:15.773Z,1.80
2023-02-22T09:11:43.075Z,2.10
2023-02-22T09:14:16.742Z,1.70
2023-02-22T09:16:48.402Z,2.17
2023-02-22T09:19:22.794Z,2.00
2023-02-22T09:22:04.731Z,2.47
2023-02-22T09:24:32.170Z,2.33
2023-02-22T09:27:06.777Z,2.63
2023-02-22T09:29:34.281Z,2.60
2023-02-22T09:32:07.853Z,2.95
2023-02-22T09:34:41.744Z,2.90
2023-02-22T09:37:09.103Z,3.30
2023-02-22T09:39:43.833Z,2.47
2023-02-22T09:42:40.746Z,2.97
2023-02-22T09:45:54.834Z,3.00
2023-02-22T09:48:25.380Z,2.30
2023-02-22T09:51:04.718Z,3.30
2023-02-22T09:54:01.734Z,3.08
2023-02-22T09:56:37.811Z,3.15
2023-02-22T09:59:07.913Z,3.20
2023-02-22T10:01:53.747Z,3.13
2023-02-22T10:04:44.925Z,3.30
2023-02-22T10:07:43.736Z,3.22
2023-02-22T10:10:20.817Z,3.35
2023-02-22T10:13:12.765Z,3.17
2023-02-22T10:16:17.558Z,3.20
2023-02-22T10:19:06.754Z,3.25
2023-02-22T10:21:53.764Z,3.67
2023-02-22T10:24:48.799Z,3.58
2023-02-22T10:27:29.778Z,3.65
2023-02-22T10:30:24.614Z,3.50
2023-02-22T10:33:23.747Z,3.83
2023-02-22T10:35:53.715Z,4.03
2023-02-22T10:38:36.148Z,3.13
2023-02-22T10:41:26.108Z,3.65
2023-02-22T10:43:53.601Z,3.85
2023-02-22T10:46:36.101Z,4.05
2023-02-22T10:49:09.106Z,3.65
2023-02-22T10:51:43.161Z,3.67
2023-02-22T10:54:31.200Z,3.30
2023-02-22T10:57:12.185Z,3.20
2023-02-22T10:59:41.162Z,3.10
2023-02-22T11:02:44.179Z,3.83
2023-02-22T11:05:37.876Z,3.50
2023-02-22T11:08:27.151Z,3.35
2023-02-22T11:11:03.376Z,4.40
2023-02-22T11:13:45.160Z,3.92
2023-02-22T11:16:24.949Z,3.95
2023-02-22T11:19:15.125Z,3.80
2023-02-22T11:21:43.449Z,4.22
2023-02-22T11:24:21.133Z,3.83
2023-02-22T11:26:56.295Z,5.82
2023-02-22T11:29:38.179Z,8.48
2023-02-22T11:32:22.153Z,11.43
2023-02-22T11:35:08.825Z,4.30
2023-02-22T11:37:46.175Z,3.88
2023-02-22T11:40:28.205Z,4.10
2023-02-22T11:43:19.611Z,4.05
2023-02-22T11:46:10.227Z,4.03
2023-02-22T11:48:39.857Z,3.88
2023-02-22T11:51:23.213Z,3.90
2023-02-22T11:54:26.223Z,3.83
2023-02-22T11:57:28.256Z,4.50
2023-02-22T12:00:01.378Z,4.13
2023-02-22T12:02:57.410Z,4.30
2023-02-22T12:05:59.527Z,4.20
2023-02-22T12:09:11.259Z,4.30
2023-02-22T12:12:31.154Z,5.00
2023-02-22T12:15:34.262Z,4.38
2023-02-22T12:18:22.683Z,4.15
2023-02-22T12:21:20.226Z,4.20
2023-02-22T12:23:56.467Z,4.05
2023-02-22T12:26:48.248Z,4.57
2023-02-22T12:29:33.249Z,4.25
2023-02-22T12:32:24.341Z,4.72
2023-02-22T12:35:20.754Z,4.30
2023-02-22T12:38:19.314Z,4.47
2023-02-22T12:41:14.341Z,4.57
2023-02-22T12:44:05.601Z,4.85
2023-02-22T12:46:56.834Z,4.80
2023-02-22T12:49:40.980Z,4.28
2023-02-22T12:52:22.074Z,4.47
2023-02-22T12:55:19.027Z,3.90
2023-02-22T12:58:09.015Z,5.07
2023-02-22T13:00:45.342Z,5.03
2023-02-22T13:03:30.972Z,4.85
2023-02-22T13:06:37.485Z,4.40
2023-02-22T13:09:30.040Z,4.45
2023-02-22T13:12:39.986Z,4.47
2023-02-22T13:15:29.016Z,4.63
2023-02-22T13:18:10.573Z,5.40
2023-02-22T13:21:10.013Z,5.28
2023-02-22T13:23:55.650Z,5.13
2023-02-22T13:26:45.021Z,4.75
2023-02-22T13:29:21.760Z,4.80
2023-02-22T13:32:06.103Z,5.07
2023-02-22T13:35:02.007Z,4.60
2023-02-22T13:37:47.001Z,4.50
2023-02-22T13:41:01.704Z,4.55
2023-02-22T13:43:44.092Z,4.85
2023-02-22T13:46:54.970Z,4.28
2023-02-22T13:49:41.058Z,4.03
2023-02-22T13:52:27.005Z,4.78
2023-02-22T13:55:24.390Z,4.32
2023-02-22T13:58:11.072Z,5.03
2023-02-22T14:00:49.306Z,5.10
2023-02-22T14:03:31.117Z,4.32
2023-02-22T14:06:06.970Z,4.78
2023-02-22T14:08:41.952Z,4.68
2023-02-22T14:11:24.999Z,5.65
2023-02-22T14:14:04.008Z,5.20
2023-02-22T14:16:33.950Z,5.45
2023-02-22T14:19:16.017Z,5.85
2023-02-22T14:22:11.021Z,5.53
2023-02-22T14:24:51.997Z,5.43
2023-02-22T14:27:20.658Z,5.57
2023-02-22T14:30:13.028Z,5.70
2023-02-22T14:32:40.696Z,6.45
2023-02-22T14:35:30.069Z,6.25
2023-02-22T14:38:04.636Z,5.85
2023-02-22T14:40:43.047Z,6.05
2023-02-22T14:43:19.966Z,5.25
2023-02-22T14:46:07.077Z,7.05
2023-02-22T14:48:39.636Z,5.78
2023-02-22T14:51:26.846Z,5.68
2023-02-22T14:54:04.644Z,6.15
2023-02-22T14:56:56.001Z,6.00
2023-02-22T14:59:33.054Z,5.90
2023-02-22T15:02:19.303Z,6.68
2023-02-22T15:04:55.864Z,5.70
2023-02-22T15:07:35.309Z,5.90
2023-02-22T15:10:17.768Z,6.60
2023-02-22T15:13:15.326Z,6.35
2023-02-22T15:15:54.897Z,6.35
2023-02-22T15:33:03.594Z,6.90
2023-02-22T15:35:39.940Z,6.97
2023-02-22T15:38:14.317Z,6.72
2023-02-22T15:40:49.907Z,7.38
2023-02-22T15:43:30.928Z,6.15
2023-02-22T15:46:06.020Z,6.28
2023-02-22T15:48:37.223Z,6.63
2023-02-22T15:51:19.365Z,6.05
2023-02-22T15:53:49.506Z,6.95
2023-02-22T15:56:41.864Z,6.22
2023-02-22T15:59:18.832Z,5.57
2023-02-22T16:01:56.908Z,5.55
2023-02-22T16:04:36.917Z,6.10
2023-02-22T16:07:23.911Z,5.47
2023-02-22T16:09:52.362Z,5.20
2023-02-22T16:12:28.902Z,5.80
2023-02-22T16:14:56.712Z,6.30
2023-02-22T16:18:01.051Z,5.53
2023-02-22T16:20:38.889Z,5.40
2023-02-22T16:23:32.888Z,5.60
2023-02-22T16:26:31.887Z,4.70
2023-02-22T16:29:07.970Z,5.10
2023-02-22T16:31:37.907Z,5.15
2023-02-22T16:34:14.891Z,5.20
2023-02-22T16:36:55.886Z,6.57
2023-02-22T16:39:35.882Z,7.18
2023-02-22T16:42:05.434Z,6.32
2023-02-22T16:44:40.938Z,5.27
2023-02-22T16:47:12.141Z,5.82
2023-02-22T16:49:45.887Z,5.70
2023-02-22T16:52:13.719Z,4.93
2023-02-22T16:54:51.881Z,6.20
2023-02-22T16:57:35.901Z,7.40
2023-02-22T17:00:14.989Z,7.73
2023-02-22T17:02:48.903Z,9.30
2023-02-22T17:05:17.075Z,8.60
2023-02-22T17:07:50.894Z,9.00
2023-02-22T17:10:18.742Z,9.37
2023-02-22T17:12:54.162Z,10.27
2023-02-22T17:15:30.956Z,11.23
2023-02-22T17:18:06.022Z,11.03
2023-02-22T17:20:40.147Z,12.00
2023-02-22T17:23:15.882Z,12.83
2023-02-22T17:26:00.392Z,12.47
2023-02-22T17:28:28.932Z,12.03
2023-02-22T17:31:07.996Z,12.60
2023-02-22T17:33:37.457Z,12.13
2023-02-22T17:36:11.889Z,12.60
2023-02-22T17:38:48.903Z,12.30
2023-02-22T17:41:16.523Z,13.40
2023-02-22T17:43:49.870Z,13.07
2023-02-22T17:46:19.714Z,12.07
2023-02-22T17:49:00.910Z,12.17
2023-02-22T17:51:34.925Z,12.03
2023-02-22T17:54:10.384Z,11.10
2023-02-22T17:56:45.038Z,11.33
2023-02-22T17:59:18.943Z,10.80
2023-02-22T18:01:54.638Z,10.97
2023-02-22T18:04:30.070Z,11.73
2023-02-22T18:06:57.409Z,12.37
2023-02-22T18:09:30.998Z,12.13
2023-02-22T18:12:04.896Z,12.23
2023-02-22T18:14:38.906Z,11.93
2023-02-22T18:17:13.868Z,12.60
2023-02-22T18:19:42.069Z,13.37
2023-02-22T18:22:16.904Z,13.17
2023-02-22T18:24:44.674Z,13.83
2023-02-22T18:27:21.412Z,13.87
2023-02-22T18:29:48.686Z,13.30
2023-02-22T18:32:22.995Z,11.57
2023-02-22T18:34:56.893Z,12.80
2023-02-22T18:37:34.973Z,13.00
2023-02-22T18:40:03.631Z,13.40
2023-02-22T18:42:37.931Z,13.53
2023-02-22T18:45:07.348Z,11.63
2023-02-22T18:47:50.216Z,13.03
2023-02-22T18:50:24.983Z,13.90
2023-02-22T18:52:58.887Z,13.47
2023-02-22T18:55:32.904Z,12.67
2023-02-22T18:58:06.989Z,13.10
2023-02-22T19:00:41.920Z,14.63
2023-02-22T19:03:17.042Z,13.67
2023-02-22T19:05:44.402Z,13.80
2023-02-22T19:08:17.934Z,14.47
2023-02-22T19:10:51.964Z,14.33
2023-02-22T19:13:25.892Z,13.93
2023-02-22T19:15:53.194Z,14.47
2023-02-22T19:18:27.996Z,15.13
2023-02-22T19:21:03.553Z,16.00
2023-02-22T19:23:39.879Z,16.17
2023-02-22T19:26:16.037Z,15.60
2023-02-22T19:28:50.884Z,17.23
2023-02-22T19:31:36.969Z,16.43
2023-02-22T19:34:17.965Z,16.00
2023-02-22T19:36:52.946Z,16.43
2023-02-22T19:39:27.979Z,17.20
2023-02-22T19:42:02.985Z,17.20
2023-02-22T19:44:30.433Z,16.73
2023-02-22T19:47:05.930Z,15.20
2023-02-22T19:49:33.337Z,14.47
2023-02-22T19:52:09.928Z,12.43
2023-02-22T19:54:43.971Z,12.73
2023-02-22T19:57:22.584Z,13.63
2023-02-22T19:59:56.944Z,12.97
2023-02-22T20:02:33.933Z,13.40
2023-02-22T20:05:07.939Z,12.97
2023-02-22T20:07:41.970Z,13.47
2023-02-22T20:10:09.812Z,13.33
2023-02-22T20:12:43.949Z,13.60
2023-02-22T20:15:13.112Z,14.27
2023-02-22T20:17:43.882Z,15.07
2023-02-22T20:20:20.204Z,15.40
2023-02-22T20:22:54.014Z,15.93
2023-02-22T20:25:23.904Z,14.80
2023-02-22T20:27:58.992Z,14.50
2023-02-22T20:30:28.687Z,14.87
2023-02-22T20:33:05.507Z,13.93
2023-02-22T20:35:34.052Z,14.47
2023-02-22T20:38:10.419Z,12.50
2023-02-22T20:40:41.163Z,14.13
2023-02-22T20:43:16.217Z,13.80
2023-02-22T20:45:50.056Z,11.77
2023-02-22T20:48:17.462Z,12.70
2023-02-22T20:50:44.892Z,12.10
2023-02-22T20:53:18.975Z,11.57
2023-02-22T20:56:06.990Z,11.93
2023-02-22T20:58:40.975Z,10.50
2023-02-22T21:01:13.849Z,10.77
2023-02-22T21:03:50.125Z,10.93
2023-02-22T21:06:21.379Z,12.17
2023-02-22T21:09:03.957Z,11.70
2023-02-22T21:11:32.115Z,12.40
2023-02-22T21:14:08.088Z,12.63
2023-02-22T21:16:42.982Z,12.50
2023-02-22T21:19:12.058Z,14.07
2023-02-22T21:21:46.965Z,13.87
2023-02-22T21:24:22.127Z,16.70
2023-02-22T21:26:49.609Z,16.63
2023-02-22T21:29:25.955Z,20.27
2023-02-22T21:31:53.565Z,17.33
2023-02-22T21:34:29.954Z,19.30
2023-02-22T21:36:57.542Z,17.67
2023-02-22T21:39:37.955Z,16.67
2023-02-22T21:42:07.205Z,16.90
2023-02-22T21:44:34.627Z,14.17
2023-02-22T21:47:09.003Z,17.73
2023-02-22T21:49:44.925Z,15.60
2023-02-22T21:52:19.972Z,15.20
2023-02-22T21:54:53.935Z,15.47
2023-02-22T21:57:35.979Z,15.60
2023-02-22T22:00:18.957Z,14.83
2023-02-22T22:02:48.475Z,13.40
2023-02-22T22:05:30.012Z,13.10
2023-02-22T22:08:03.966Z,12.33
2023-02-22T22:10:39.975Z,14.23
2023-02-22T22:13:09.124Z,16.40
2023-02-22T22:15:43.987Z,17.57
2023-02-22T22:18:18.983Z,18.40
2023-02-22T22:21:00.476Z,18.50
2023-02-22T22:23:27.873Z,18.63
2023-02-22T22:26:08.987Z,18.70
2023-02-22T22:28:43.956Z,18.90
2023-02-22T22:31:19.437Z,18.37
2023-02-22T22:33:47.767Z,20.53
2023-02-22T22:36:27.952Z,19.50
2023-02-22T22:38:58.710Z,23.30
2023-02-22T22:41:34.952Z,23.00
2023-02-22T22:44:08.930Z,21.83
2023-02-22T22:46:47.975Z,21.23
2023-02-22T22:49:16.344Z,23.80
2023-02-22T22:51:47.375Z,22.47
2023-02-22T22:54:21.972Z,22.73
2023-02-22T22:56:57.147Z,24.63
2023-02-22T22:59:31.970Z,25.30
2023-02-22T23:02:05.933Z,27.10
2023-02-22T23:04:40.956Z,26.80
2023-02-22T23:07:08.492Z,27.87
2023-02-22T23:09:45.927Z,25.73
2023-02-22T23:12:25.981Z,26.17
2023-02-22T23:15:00.022Z,29.53
2023-02-22T23:17:31.469Z,28.37
2023-02-22T23:20:06.986Z,27.57
2023-02-22T23:22:34.281Z,25.97
2023-02-22T23:25:08.095Z,27.00
2023-02-22T23:27:38.500Z,30.17
2023-02-22T23:30:12.962Z,30.83
2023-02-22T23:32:47.984Z,30.03
2023-02-22T23:35:19.105Z,31.00
2023-02-22T23:38:03.986Z,29.40
2023-02-22T23:40:31.462Z,30.90
2023-02-22T23:43:10.042Z,30.37
2023-02-22T23:45:41.125Z,31.57
2023-02-22T23:48:14.944Z,31.57
2023-02-22T23:50:49.008Z,29.13
2023-02-22T23:53:17.370Z,31.27
2023-02-22T23:55:53.075Z,30.70
2023-02-22T23:58:27.831Z,27.93
